sensor_id;sensor_type;location;lat;lon;timestamp;P1;durP1;ratioP1;P2;durP2;ratioP2
55082;SDS011;40978;52.850;6.506;2023-04-25T00:02:18;21.70;;;4.68;;
55082;SDS011;40978;52.850;6.506;2023-04-25T00:04:44;18.40;;;4.05;;
55082;SDS011;40978;52.850;6.506;2023-04-25T00:07:10;18.90;;;4.10;;
55082;SDS011;40978;52.850;6.506;2023-04-25T00:09:36;17.65;;;4.18;;
55082;SDS011;40978;52.850;6.506;2023-04-25T00:12:02;18.33;;;3.92;;
55082;SDS011;40978;52.850;6.506;2023-04-25T00:14:29;18.83;;;4.55;;
55082;SDS011;40978;52.850;6.506;2023-04-25T00:16:55;18.52;;;4.43;;
55082;SDS011;40978;52.850;6.506;2023-04-25T00:19:21;17.38;;;3.97;;
55082;SDS011;40978;52.850;6.506;2023-04-25T00:21:47;18.10;;;4.07;;
55082;SDS011;40978;52.850;6.506;2023-04-25T00:24:13;16.92;;;4.18;;
55082;SDS011;40978;52.850;6.506;2023-04-25T00:26:38;21.48;;;5.68;;
55082;SDS011;40978;52.850;6.506;2023-04-25T00:29:04;21.95;;;4.82;;
55082;SDS011;40978;52.850;6.506;2023-04-25T00:31:30;19.98;;;4.20;;
55082;SDS011;40978;52.850;6.506;2023-04-25T00:33:56;21.23;;;4.93;;
55082;SDS011;40978;52.850;6.506;2023-04-25T00:36:21;21.70;;;4.90;;
55082;SDS011;40978;52.850;6.506;2023-04-25T00:38:47;24.15;;;4.60;;
55082;SDS011;40978;52.850;6.506;2023-04-25T00:41:13;22.33;;;4.45;;
55082;SDS011;40978;52.850;6.506;2023-04-25T00:43:39;19.13;;;4.25;;
55082;SDS011;40978;52.850;6.506;2023-04-25T00:46:05;18.15;;;4.45;;
55082;SDS011;40978;52.850;6.506;2023-04-25T00:48:31;26.05;;;4.75;;
55082;SDS011;40978;52.850;6.506;2023-04-25T00:50:57;25.30;;;4.75;;
55082;SDS011;40978;52.850;6.506;2023-04-25T00:53:24;21.02;;;4.97;;
55082;SDS011;40978;52.850;6.506;2023-04-25T00:55:51;24.02;;;4.63;;
55082;SDS011;40978;52.850;6.506;2023-04-25T00:58:17;26.55;;;4.90;;
55082;SDS011;40978;52.850;6.506;2023-04-25T01:00:44;21.65;;;4.60;;
55082;SDS011;40978;52.850;6.506;2023-04-25T01:03:12;15.35;;;4.30;;
55082;SDS011;40978;52.850;6.506;2023-04-25T01:05:41;21.58;;;4.20;;
55082;SDS011;40978;52.850;6.506;2023-04-25T01:08:08;18.60;;;3.85;;
55082;SDS011;40978;52.850;6.506;2023-04-25T01:10:35;22.00;;;4.88;;
55082;SDS011;40978;52.850;6.506;2023-04-25T01:13:01;22.25;;;4.57;;
55082;SDS011;40978;52.850;6.506;2023-04-25T01:15:28;15.52;;;4.15;;
55082;SDS011;40978;52.850;6.506;2023-04-25T01:17:53;20.48;;;4.45;;
55082;SDS011;40978;52.850;6.506;2023-04-25T01:20:23;20.48;;;4.15;;
55082;SDS011;40978;52.850;6.506;2023-04-25T01:22:53;12.82;;;3.72;;
55082;SDS011;40978;52.850;6.506;2023-04-25T01:25:21;25.77;;;5.50;;
55082;SDS011;40978;52.850;6.506;2023-04-25T01:27:47;20.92;;;3.95;;
55082;SDS011;40978;52.850;6.506;2023-04-25T01:30:13;19.77;;;3.97;;
55082;SDS011;40978;52.850;6.506;2023-04-25T01:32:39;18.02;;;4.32;;
55082;SDS011;40978;52.850;6.506;2023-04-25T01:35:07;18.25;;;3.63;;
55082;SDS011;40978;52.850;6.506;2023-04-25T01:37:41;21.23;;;4.30;;
55082;SDS011;40978;52.850;6.506;2023-04-25T01:40:08;19.80;;;4.22;;
55082;SDS011;40978;52.850;6.506;2023-04-25T01:42:36;19.95;;;4.38;;
55082;SDS011;40978;52.850;6.506;2023-04-25T01:45:05;22.25;;;4.05;;
55082;SDS011;40978;52.850;6.506;2023-04-25T01:47:31;18.25;;;4.38;;
55082;SDS011;40978;52.850;6.506;2023-04-25T01:49:57;18.23;;;4.60;;
55082;SDS011;40978;52.850;6.506;2023-04-25T01:52:23;17.58;;;4.40;;
55082;SDS011;40978;52.850;6.506;2023-04-25T01:54:49;19.92;;;3.88;;
55082;SDS011;40978;52.850;6.506;2023-04-25T01:57:16;22.02;;;3.92;;
55082;SDS011;40978;52.850;6.506;2023-04-25T01:59:42;20.35;;;3.40;;
55082;SDS011;40978;52.850;6.506;2023-04-25T02:02:08;22.33;;;3.67;;
55082;SDS011;40978;52.850;6.506;2023-04-25T02:04:34;19.08;;;3.70;;
55082;SDS011;40978;52.850;6.506;2023-04-25T02:07:00;13.77;;;3.30;;
55082;SDS011;40978;52.850;6.506;2023-04-25T02:09:26;21.90;;;3.95;;
55082;SDS011;40978;52.850;6.506;2023-04-25T02:11:52;11.50;;;3.10;;
55082;SDS011;40978;52.850;6.506;2023-04-25T02:14:18;18.58;;;3.00;;
55082;SDS011;40978;52.850;6.506;2023-04-25T02:16:43;16.02;;;3.42;;
55082;SDS011;40978;52.850;6.506;2023-04-25T02:19:10;17.35;;;3.30;;
55082;SDS011;40978;52.850;6.506;2023-04-25T02:21:36;20.45;;;3.30;;
55082;SDS011;40978;52.850;6.506;2023-04-25T02:24:02;19.80;;;3.92;;
55082;SDS011;40978;52.850;6.506;2023-04-25T02:26:28;16.23;;;2.78;;
55082;SDS011;40978;52.850;6.506;2023-04-25T02:28:55;13.20;;;3.40;;
55082;SDS011;40978;52.850;6.506;2023-04-25T02:31:22;20.13;;;3.33;;
55082;SDS011;40978;52.850;6.506;2023-04-25T02:33:48;26.13;;;5.03;;
55082;SDS011;40978;52.850;6.506;2023-04-25T02:36:13;20.45;;;3.63;;
55082;SDS011;40978;52.850;6.506;2023-04-25T02:38:40;15.32;;;3.08;;
55082;SDS011;40978;52.850;6.506;2023-04-25T02:41:06;15.98;;;2.92;;
55082;SDS011;40978;52.850;6.506;2023-04-25T02:43:31;15.10;;;2.65;;
55082;SDS011;40978;52.850;6.506;2023-04-25T02:45:57;12.35;;;2.80;;
55082;SDS011;40978;52.850;6.506;2023-04-25T02:48:23;18.92;;;2.92;;
55082;SDS011;40978;52.850;6.506;2023-04-25T02:50:48;11.85;;;2.58;;
55082;SDS011;40978;52.850;6.506;2023-04-25T02:53:14;17.58;;;2.80;;
55082;SDS011;40978;52.850;6.506;2023-04-25T02:55:40;17.40;;;2.95;;
55082;SDS011;40978;52.850;6.506;2023-04-25T02:58:06;11.00;;;2.53;;
55082;SDS011;40978;52.850;6.506;2023-04-25T03:00:32;13.38;;;2.30;;
55082;SDS011;40978;52.850;6.506;2023-04-25T03:02:58;17.10;;;2.92;;
55082;SDS011;40978;52.850;6.506;2023-04-25T03:05:23;16.52;;;2.90;;
55082;SDS011;40978;52.850;6.506;2023-04-25T03:07:49;16.58;;;2.85;;
55082;SDS011;40978;52.850;6.506;2023-04-25T03:10:15;14.95;;;2.58;;
55082;SDS011;40978;52.850;6.506;2023-04-25T03:12:40;15.90;;;2.60;;
55082;SDS011;40978;52.850;6.506;2023-04-25T03:15:06;16.92;;;2.35;;
55082;SDS011;40978;52.850;6.506;2023-04-25T03:17:32;15.05;;;2.58;;
55082;SDS011;40978;52.850;6.506;2023-04-25T03:19:58;12.70;;;2.65;;
55082;SDS011;40978;52.850;6.506;2023-04-25T03:22:24;12.60;;;2.53;;
55082;SDS011;40978;52.850;6.506;2023-04-25T03:24:50;14.75;;;2.80;;
55082;SDS011;40978;52.850;6.506;2023-04-25T03:27:15;18.08;;;2.60;;
55082;SDS011;40978;52.850;6.506;2023-04-25T03:29:42;10.43;;;1.80;;
55082;SDS011;40978;52.850;6.506;2023-04-25T03:32:07;7.00;;;1.60;;
55082;SDS011;40978;52.850;6.506;2023-04-25T03:34:33;6.68;;;1.55;;
55082;SDS011;40978;52.850;6.506;2023-04-25T03:36:59;6.43;;;1.48;;
55082;SDS011;40978;52.850;6.506;2023-04-25T03:39:25;8.13;;;1.55;;
55082;SDS011;40978;52.850;6.506;2023-04-25T03:41:50;4.32;;;0.80;;
55082;SDS011;40978;52.850;6.506;2023-04-25T03:44:16;6.47;;;1.73;;
55082;SDS011;40978;52.850;6.506;2023-04-25T03:46:42;10.02;;;1.25;;
55082;SDS011;40978;52.850;6.506;2023-04-25T03:49:08;8.63;;;1.23;;
55082;SDS011;40978;52.850;6.506;2023-04-25T03:51:34;12.52;;;1.55;;
55082;SDS011;40978;52.850;6.506;2023-04-25T03:53:59;7.88;;;1.17;;
55082;SDS011;40978;52.850;6.506;2023-04-25T03:56:25;6.43;;;1.17;;
55082;SDS011;40978;52.850;6.506;2023-04-25T03:58:51;7.88;;;1.50;;
55082;SDS011;40978;52.850;6.506;2023-04-25T04:01:16;7.63;;;1.38;;
55082;SDS011;40978;52.850;6.506;2023-04-25T04:03:42;4.78;;;0.85;;
55082;SDS011;40978;52.850;6.506;2023-04-25T04:06:08;11.82;;;1.35;;
55082;SDS011;40978;52.850;6.506;2023-04-25T04:08:34;8.95;;;1.02;;
55082;SDS011;40978;52.850;6.506;2023-04-25T04:11:00;6.50;;;1.20;;
55082;SDS011;40978;52.850;6.506;2023-04-25T04:13:26;6.10;;;1.08;;
55082;SDS011;40978;52.850;6.506;2023-04-25T04:15:52;9.38;;;1.50;;
55082;SDS011;40978;52.850;6.506;2023-04-25T04:18:18;7.82;;;1.30;;
55082;SDS011;40978;52.850;6.506;2023-04-25T04:20:44;11.32;;;1.58;;
55082;SDS011;40978;52.850;6.506;2023-04-25T04:23:10;15.43;;;2.47;;
55082;SDS011;40978;52.850;6.506;2023-04-25T04:25:37;10.30;;;2.08;;
55082;SDS011;40978;52.850;6.506;2023-04-25T04:28:03;8.75;;;1.10;;
55082;SDS011;40978;52.850;6.506;2023-04-25T04:30:28;6.28;;;1.33;;
55082;SDS011;40978;52.850;6.506;2023-04-25T04:32:55;11.93;;;1.73;;
55082;SDS011;40978;52.850;6.506;2023-04-25T04:35:22;5.53;;;1.38;;
55082;SDS011;40978;52.850;6.506;2023-04-25T04:37:48;10.82;;;1.70;;
55082;SDS011;40978;52.850;6.506;2023-04-25T04:40:14;7.72;;;1.83;;
55082;SDS011;40978;52.850;6.506;2023-04-25T04:42:44;10.10;;;2.25;;
55082;SDS011;40978;52.850;6.506;2023-04-25T04:45:13;5.95;;;1.75;;
55082;SDS011;40978;52.850;6.506;2023-04-25T04:47:39;12.63;;;1.77;;
55082;SDS011;40978;52.850;6.506;2023-04-25T04:50:06;10.70;;;1.67;;
55082;SDS011;40978;52.850;6.506;2023-04-25T04:52:34;12.32;;;1.90;;
55082;SDS011;40978;52.850;6.506;2023-04-25T04:55:01;9.13;;;1.30;;
55082;SDS011;40978;52.850;6.506;2023-04-25T04:57:28;7.82;;;1.60;;
55082;SDS011;40978;52.850;6.506;2023-04-25T04:59:54;14.73;;;2.33;;
55082;SDS011;40978;52.850;6.506;2023-04-25T05:02:20;14.43;;;2.05;;
55082;SDS011;40978;52.850;6.506;2023-04-25T05:04:45;10.32;;;1.83;;
55082;SDS011;40978;52.850;6.506;2023-04-25T05:07:12;10.20;;;1.77;;
55082;SDS011;40978;52.850;6.506;2023-04-25T05:09:37;11.43;;;2.20;;
55082;SDS011;40978;52.850;6.506;2023-04-25T05:12:03;11.85;;;1.95;;
55082;SDS011;40978;52.850;6.506;2023-04-25T05:14:30;13.82;;;2.13;;
55082;SDS011;40978;52.850;6.506;2023-04-25T05:16:55;13.73;;;2.10;;
55082;SDS011;40978;52.850;6.506;2023-04-25T05:19:21;11.57;;;1.85;;
55082;SDS011;40978;52.850;6.506;2023-04-25T05:21:47;12.88;;;2.13;;
55082;SDS011;40978;52.850;6.506;2023-04-25T05:24:12;12.27;;;2.05;;
55082;SDS011;40978;52.850;6.506;2023-04-25T05:26:39;11.93;;;2.00;;
55082;SDS011;40978;52.850;6.506;2023-04-25T05:29:04;5.28;;;1.45;;
55082;SDS011;40978;52.850;6.506;2023-04-25T05:31:31;10.63;;;2.15;;
55082;SDS011;40978;52.850;6.506;2023-04-25T05:33:57;11.80;;;1.90;;
55082;SDS011;40978;52.850;6.506;2023-04-25T05:36:22;15.80;;;1.90;;
55082;SDS011;40978;52.850;6.506;2023-04-25T05:38:48;9.55;;;1.95;;
55082;SDS011;40978;52.850;6.506;2023-04-25T05:41:14;15.40;;;2.50;;
55082;SDS011;40978;52.850;6.506;2023-04-25T05:43:40;11.60;;;2.20;;
55082;SDS011;40978;52.850;6.506;2023-04-25T05:46:10;12.50;;;1.75;;
55082;SDS011;40978;52.850;6.506;2023-04-25T05:48:37;15.13;;;2.28;;
55082;SDS011;40978;52.850;6.506;2023-04-25T05:51:03;9.05;;;1.73;;
55082;SDS011;40978;52.850;6.506;2023-04-25T05:53:28;13.90;;;1.50;;
55082;SDS011;40978;52.850;6.506;2023-04-25T05:55:54;12.55;;;1.55;;
55082;SDS011;40978;52.850;6.506;2023-04-25T05:58:20;11.23;;;1.85;;
55082;SDS011;40978;52.850;6.506;2023-04-25T06:00:46;14.93;;;2.05;;
55082;SDS011;40978;52.850;6.506;2023-04-25T06:03:12;12.52;;;1.88;;
55082;SDS011;40978;52.850;6.506;2023-04-25T06:05:43;9.35;;;2.05;;
55082;SDS011;40978;52.850;6.506;2023-04-25T06:08:09;10.82;;;1.98;;
55082;SDS011;40978;52.850;6.506;2023-04-25T06:10:35;10.68;;;1.98;;
55082;SDS011;40978;52.850;6.506;2023-04-25T06:13:01;12.98;;;1.77;;
55082;SDS011;40978;52.850;6.506;2023-04-25T06:15:27;7.45;;;1.67;;
55082;SDS011;40978;52.850;6.506;2023-04-25T06:17:53;11.25;;;1.77;;
55082;SDS011;40978;52.850;6.506;2023-04-25T06:20:19;12.73;;;1.70;;
55082;SDS011;40978;52.850;6.506;2023-04-25T06:22:48;8.55;;;1.90;;
55082;SDS011;40978;52.850;6.506;2023-04-25T06:25:14;9.45;;;2.17;;
55082;SDS011;40978;52.850;6.506;2023-04-25T06:27:40;9.60;;;1.63;;
55082;SDS011;40978;52.850;6.506;2023-04-25T06:30:06;14.13;;;2.05;;
55082;SDS011;40978;52.850;6.506;2023-04-25T06:32:32;10.18;;;1.45;;
55082;SDS011;40978;52.850;6.506;2023-04-25T06:34:59;10.98;;;1.40;;
55082;SDS011;40978;52.850;6.506;2023-04-25T06:37:25;8.10;;;1.73;;
55082;SDS011;40978;52.850;6.506;2023-04-25T06:39:54;11.68;;;1.70;;
55082;SDS011;40978;52.850;6.506;2023-04-25T06:42:20;8.98;;;1.60;;
55082;SDS011;40978;52.850;6.506;2023-04-25T06:44:45;11.40;;;1.60;;
55082;SDS011;40978;52.850;6.506;2023-04-25T06:47:11;10.13;;;1.52;;
55082;SDS011;40978;52.850;6.506;2023-04-25T06:49:37;8.10;;;1.88;;
55082;SDS011;40978;52.850;6.506;2023-04-25T06:52:02;12.73;;;2.05;;
55082;SDS011;40978;52.850;6.506;2023-04-25T06:54:28;11.50;;;1.65;;
55082;SDS011;40978;52.850;6.506;2023-04-25T06:56:55;12.15;;;1.50;;
55082;SDS011;40978;52.850;6.506;2023-04-25T06:59:21;9.90;;;1.98;;
55082;SDS011;40978;52.850;6.506;2023-04-25T07:01:47;11.40;;;1.75;;
55082;SDS011;40978;52.850;6.506;2023-04-25T07:04:12;9.68;;;1.50;;
55082;SDS011;40978;52.850;6.506;2023-04-25T07:06:38;12.10;;;1.95;;
55082;SDS011;40978;52.850;6.506;2023-04-25T07:09:10;9.60;;;1.70;;
55082;SDS011;40978;52.850;6.506;2023-04-25T07:11:37;6.68;;;1.55;;
55082;SDS011;40978;52.850;6.506;2023-04-25T07:14:02;8.95;;;1.40;;
55082;SDS011;40978;52.850;6.506;2023-04-25T07:16:28;10.20;;;1.50;;
55082;SDS011;40978;52.850;6.506;2023-04-25T07:18:54;10.63;;;1.48;;
55082;SDS011;40978;52.850;6.506;2023-04-25T07:21:20;7.80;;;1.15;;
55082;SDS011;40978;52.850;6.506;2023-04-25T07:23:46;6.03;;;1.05;;
55082;SDS011;40978;52.850;6.506;2023-04-25T07:26:12;5.28;;;1.05;;
55082;SDS011;40978;52.850;6.506;2023-04-25T07:28:38;4.90;;;0.93;;
55082;SDS011;40978;52.850;6.506;2023-04-25T07:31:04;7.28;;;0.85;;
55082;SDS011;40978;52.850;6.506;2023-04-25T07:33:30;5.75;;;1.00;;
55082;SDS011;40978;52.850;6.506;2023-04-25T07:35:56;3.05;;;0.90;;
55082;SDS011;40978;52.850;6.506;2023-04-25T07:38:22;6.85;;;0.98;;
55082;SDS011;40978;52.850;6.506;2023-04-25T07:40:48;6.63;;;1.05;;
55082;SDS011;40978;52.850;6.506;2023-04-25T07:43:14;3.80;;;0.73;;
55082;SDS011;40978;52.850;6.506;2023-04-25T07:45:42;5.68;;;0.90;;
55082;SDS011;40978;52.850;6.506;2023-04-25T07:48:11;9.50;;;1.00;;
55082;SDS011;40978;52.850;6.506;2023-04-25T07:50:42;9.10;;;1.42;;
55082;SDS011;40978;52.850;6.506;2023-04-25T07:53:08;6.43;;;0.95;;
55082;SDS011;40978;52.850;6.506;2023-04-25T07:55:34;6.47;;;0.93;;
55082;SDS011;40978;52.850;6.506;2023-04-25T07:58:01;5.35;;;0.90;;
55082;SDS011;40978;52.850;6.506;2023-04-25T08:00:28;3.58;;;0.55;;
55082;SDS011;40978;52.850;6.506;2023-04-25T08:02:54;4.65;;;0.65;;
55082;SDS011;40978;52.850;6.506;2023-04-25T08:05:19;4.18;;;0.57;;
55082;SDS011;40978;52.850;6.506;2023-04-25T08:07:45;6.55;;;0.60;;
55082;SDS011;40978;52.850;6.506;2023-04-25T08:10:11;2.90;;;0.68;;
55082;SDS011;40978;52.850;6.506;2023-04-25T08:12:36;6.53;;;0.70;;
55082;SDS011;40978;52.850;6.506;2023-04-25T08:15:03;4.30;;;0.80;;
55082;SDS011;40978;52.850;6.506;2023-04-25T08:17:29;8.98;;;1.33;;
55082;SDS011;40978;52.850;6.506;2023-04-25T08:19:55;5.10;;;1.13;;
55082;SDS011;40978;52.850;6.506;2023-04-25T08:22:22;7.05;;;1.25;;
55082;SDS011;40978;52.850;6.506;2023-04-25T08:24:47;5.78;;;1.30;;
55082;SDS011;40978;52.850;6.506;2023-04-25T08:27:13;8.48;;;1.55;;
55082;SDS011;40978;52.850;6.506;2023-04-25T08:29:39;5.35;;;1.92;;
55082;SDS011;40978;52.850;6.506;2023-04-25T08:32:05;9.68;;;1.40;;
55082;SDS011;40978;52.850;6.506;2023-04-25T08:34:30;9.00;;;1.35;;
55082;SDS011;40978;52.850;6.506;2023-04-25T08:36:56;8.38;;;1.42;;
55082;SDS011;40978;52.850;6.506;2023-04-25T08:39:22;9.88;;;1.42;;
55082;SDS011;40978;52.850;6.506;2023-04-25T08:41:47;7.10;;;1.17;;
55082;SDS011;40978;52.850;6.506;2023-04-25T08:44:13;4.90;;;0.75;;
55082;SDS011;40978;52.850;6.506;2023-04-25T08:46:41;6.75;;;1.48;;
55082;SDS011;40978;52.850;6.506;2023-04-25T08:49:07;5.13;;;1.05;;
55082;SDS011;40978;52.850;6.506;2023-04-25T08:51:40;10.43;;;1.13;;
55082;SDS011;40978;52.850;6.506;2023-04-25T08:54:15;10.15;;;1.30;;
55082;SDS011;40978;52.850;6.506;2023-04-25T08:56:43;5.40;;;0.95;;
55082;SDS011;40978;52.850;6.506;2023-04-25T08:59:11;7.70;;;1.25;;
55082;SDS011;40978;52.850;6.506;2023-04-25T09:01:37;6.68;;;1.10;;
55082;SDS011;40978;52.850;6.506;2023-04-25T09:04:03;5.60;;;1.30;;
55082;SDS011;40978;52.850;6.506;2023-04-25T09:06:29;5.68;;;1.00;;
55082;SDS011;40978;52.850;6.506;2023-04-25T09:09:01;5.57;;;1.05;;
55082;SDS011;40978;52.850;6.506;2023-04-25T09:11:29;7.72;;;1.27;;
55082;SDS011;40978;52.850;6.506;2023-04-25T09:14:11;7.10;;;1.33;;
55082;SDS011;40978;52.850;6.506;2023-04-25T09:16:52;9.90;;;1.40;;
55082;SDS011;40978;52.850;6.506;2023-04-25T09:19:29;5.07;;;0.77;;
55082;SDS011;40978;52.850;6.506;2023-04-25T09:21:57;5.30;;;1.13;;
55082;SDS011;40978;52.850;6.506;2023-04-25T09:24:37;7.00;;;1.35;;
55082;SDS011;40978;52.850;6.506;2023-04-25T09:27:05;7.05;;;0.90;;
55082;SDS011;40978;52.850;6.506;2023-04-25T09:29:32;6.25;;;0.80;;
55082;SDS011;40978;52.850;6.506;2023-04-25T09:32:32;6.18;;;0.98;;
55082;SDS011;40978;52.850;6.506;2023-04-25T09:34:52;5.90;;;0.85;;
55082;SDS011;40978;52.850;6.506;2023-04-25T09:39:46;4.88;;;0.80;;
55082;SDS011;40978;52.850;6.506;2023-04-25T09:42:13;4.35;;;0.63;;
55082;SDS011;40978;52.850;6.506;2023-04-25T09:44:41;7.32;;;0.68;;
55082;SDS011;40978;52.850;6.506;2023-04-25T09:47:15;5.70;;;0.93;;
55082;SDS011;40978;52.850;6.506;2023-04-25T09:49:46;3.45;;;1.02;;
55082;SDS011;40978;52.850;6.506;2023-04-25T09:52:16;6.30;;;0.88;;
55082;SDS011;40978;52.850;6.506;2023-04-25T09:54:46;8.40;;;1.30;;
55082;SDS011;40978;52.850;6.506;2023-04-25T09:57:13;9.10;;;1.33;;
55082;SDS011;40978;52.850;6.506;2023-04-25T09:59:42;5.75;;;1.20;;
55082;SDS011;40978;52.850;6.506;2023-04-25T10:02:12;7.47;;;1.20;;
55082;SDS011;40978;52.850;6.506;2023-04-25T10:04:39;5.93;;;0.80;;
55082;SDS011;40978;52.850;6.506;2023-04-25T10:07:07;5.30;;;0.95;;
55082;SDS011;40978;52.850;6.506;2023-04-25T10:09:36;6.45;;;1.67;;
55082;SDS011;40978;52.850;6.506;2023-04-25T10:12:04;3.95;;;0.60;;
55082;SDS011;40978;52.850;6.506;2023-04-25T10:14:31;5.93;;;0.80;;
55082;SDS011;40978;52.850;6.506;2023-04-25T10:16:57;5.90;;;0.80;;
55082;SDS011;40978;52.850;6.506;2023-04-25T10:19:24;5.35;;;1.08;;
55082;SDS011;40978;52.850;6.506;2023-04-25T10:22:11;7.00;;;1.20;;
55082;SDS011;40978;52.850;6.506;2023-04-25T10:24:42;5.30;;;1.38;;
55082;SDS011;40978;52.850;6.506;2023-04-25T10:27:09;3.72;;;0.98;;
55082;SDS011;40978;52.850;6.506;2023-04-25T10:29:36;5.53;;;1.10;;
55082;SDS011;40978;52.850;6.506;2023-04-25T10:32:01;6.15;;;0.98;;
55082;SDS011;40978;52.850;6.506;2023-04-25T10:34:37;5.15;;;0.93;;
55082;SDS011;40978;52.850;6.506;2023-04-25T10:37:08;7.20;;;1.48;;
55082;SDS011;40978;52.850;6.506;2023-04-25T10:39:35;8.52;;;0.90;;
55082;SDS011;40978;52.850;6.506;2023-04-25T10:42:02;5.15;;;1.17;;
55082;SDS011;40978;52.850;6.506;2023-04-25T10:44:29;6.13;;;1.27;;
55082;SDS011;40978;52.850;6.506;2023-04-25T10:46:57;8.23;;;1.38;;
55082;SDS011;40978;52.850;6.506;2023-04-25T10:49:42;6.05;;;1.13;;
55082;SDS011;40978;52.850;6.506;2023-04-25T10:54:57;5.43;;;1.02;;
55082;SDS011;40978;52.850;6.506;2023-04-25T10:57:36;8.73;;;1.30;;
55082;SDS011;40978;52.850;6.506;2023-04-25T11:02:30;7.78;;;1.27;;
55082;SDS011;40978;52.850;6.506;2023-04-25T11:04:56;7.25;;;1.40;;
55082;SDS011;40978;52.850;6.506;2023-04-25T11:07:31;10.13;;;1.42;;
55082;SDS011;40978;52.850;6.506;2023-04-25T11:10:09;7.88;;;1.38;;
55082;SDS011;40978;52.850;6.506;2023-04-25T11:12:35;6.80;;;1.10;;
55082;SDS011;40978;52.850;6.506;2023-04-25T11:15:04;7.28;;;1.13;;
55082;SDS011;40978;52.850;6.506;2023-04-25T11:17:32;9.07;;;1.45;;
55082;SDS011;40978;52.850;6.506;2023-04-25T11:19:58;6.38;;;1.27;;
55082;SDS011;40978;52.850;6.506;2023-04-25T11:22:26;6.18;;;1.20;;
55082;SDS011;40978;52.850;6.506;2023-04-25T11:24:52;6.30;;;1.25;;
55082;SDS011;40978;52.850;6.506;2023-04-25T11:27:18;4.80;;;0.98;;
55082;SDS011;40978;52.850;6.506;2023-04-25T11:29:44;7.57;;;0.90;;
55082;SDS011;40978;52.850;6.506;2023-04-25T11:32:12;6.82;;;1.35;;
55082;SDS011;40978;52.850;6.506;2023-04-25T11:34:37;5.45;;;1.05;;
55082;SDS011;40978;52.850;6.506;2023-04-25T11:37:04;4.22;;;0.90;;
55082;SDS011;40978;52.850;6.506;2023-04-25T11:39:31;5.60;;;0.93;;
55082;SDS011;40978;52.850;6.506;2023-04-25T11:41:57;5.78;;;0.95;;
55082;SDS011;40978;52.850;6.506;2023-04-25T11:44:22;5.60;;;0.93;;
55082;SDS011;40978;52.850;6.506;2023-04-25T11:46:48;5.30;;;1.02;;
55082;SDS011;40978;52.850;6.506;2023-04-25T11:49:14;6.63;;;0.85;;
55082;SDS011;40978;52.850;6.506;2023-04-25T11:51:41;5.25;;;0.90;;
55082;SDS011;40978;52.850;6.506;2023-04-25T11:54:08;6.10;;;1.25;;
55082;SDS011;40978;52.850;6.506;2023-04-25T11:56:34;4.15;;;0.70;;
55082;SDS011;40978;52.850;6.506;2023-04-25T11:59:04;6.85;;;0.52;;
55082;SDS011;40978;52.850;6.506;2023-04-25T12:01:37;2.58;;;0.50;;
55082;SDS011;40978;52.850;6.506;2023-04-25T12:04:11;6.68;;;0.85;;
55082;SDS011;40978;52.850;6.506;2023-04-25T12:06:37;5.03;;;0.90;;
55082;SDS011;40978;52.850;6.506;2023-04-25T12:09:10;7.25;;;0.80;;
55082;SDS011;40978;52.850;6.506;2023-04-25T12:11:41;5.38;;;0.82;;
55082;SDS011;40978;52.850;6.506;2023-04-25T12:14:11;5.30;;;0.93;;
55082;SDS011;40978;52.850;6.506;2023-04-25T12:16:43;7.47;;;0.95;;
55082;SDS011;40978;52.850;6.506;2023-04-25T12:19:14;4.32;;;0.55;;
55082;SDS011;40978;52.850;6.506;2023-04-25T12:21:43;4.95;;;0.75;;
55082;SDS011;40978;52.850;6.506;2023-04-25T12:24:17;3.88;;;0.90;;
55082;SDS011;40978;52.850;6.506;2023-04-25T12:29:23;7.07;;;1.02;;
55082;SDS011;40978;52.850;6.506;2023-04-25T12:31:51;5.47;;;1.10;;
55082;SDS011;40978;52.850;6.506;2023-04-25T12:34:18;6.28;;;1.00;;
55082;SDS011;40978;52.850;6.506;2023-04-25T12:36:44;7.20;;;1.70;;
55082;SDS011;40978;52.850;6.506;2023-04-25T12:39:21;4.97;;;0.93;;
55082;SDS011;40978;52.850;6.506;2023-04-25T12:41:48;3.88;;;0.60;;
55082;SDS011;40978;52.850;6.506;2023-04-25T12:44:19;11.07;;;1.60;;
55082;SDS011;40978;52.850;6.506;2023-04-25T12:46:45;5.10;;;1.08;;
55082;SDS011;40978;52.850;6.506;2023-04-25T12:49:11;5.78;;;1.00;;
55082;SDS011;40978;52.850;6.506;2023-04-25T12:51:37;6.15;;;1.20;;
55082;SDS011;40978;52.850;6.506;2023-04-25T12:54:03;6.80;;;1.10;;
55082;SDS011;40978;52.850;6.506;2023-04-25T12:56:31;8.00;;;0.98;;
55082;SDS011;40978;52.850;6.506;2023-04-25T12:58:57;7.13;;;1.17;;
55082;SDS011;40978;52.850;6.506;2023-04-25T13:01:23;5.65;;;1.00;;
55082;SDS011;40978;52.850;6.506;2023-04-25T13:03:49;6.13;;;0.60;;
55082;SDS011;40978;52.850;6.506;2023-04-25T13:06:15;6.30;;;0.95;;
55082;SDS011;40978;52.850;6.506;2023-04-25T13:08:42;4.72;;;1.00;;
55082;SDS011;40978;52.850;6.506;2023-04-25T13:11:08;3.80;;;0.65;;
55082;SDS011;40978;52.850;6.506;2023-04-25T13:13:34;5.65;;;0.60;;
55082;SDS011;40978;52.850;6.506;2023-04-25T13:16:03;5.70;;;0.98;;
55082;SDS011;40978;52.850;6.506;2023-04-25T13:18:30;6.60;;;0.88;;
55082;SDS011;40978;52.850;6.506;2023-04-25T13:20:56;6.07;;;1.00;;
55082;SDS011;40978;52.850;6.506;2023-04-25T13:23:26;5.95;;;0.90;;
55082;SDS011;40978;52.850;6.506;2023-04-25T13:25:52;9.40;;;1.48;;
55082;SDS011;40978;52.850;6.506;2023-04-25T13:28:18;8.30;;;1.13;;
55082;SDS011;40978;52.850;6.506;2023-04-25T13:30:44;7.45;;;1.20;;
55082;SDS011;40978;52.850;6.506;2023-04-25T13:33:10;5.25;;;1.10;;
55082;SDS011;40978;52.850;6.506;2023-04-25T13:35:36;6.00;;;1.05;;
55082;SDS011;40978;52.850;6.506;2023-04-25T13:38:03;9.52;;;1.13;;
55082;SDS011;40978;52.850;6.506;2023-04-25T13:40:30;3.28;;;0.70;;
55082;SDS011;40978;52.850;6.506;2023-04-25T13:42:57;6.40;;;1.00;;
55082;SDS011;40978;52.850;6.506;2023-04-25T13:45:23;3.25;;;0.68;;
55082;SDS011;40978;52.850;6.506;2023-04-25T13:47:48;4.30;;;0.80;;
55082;SDS011;40978;52.850;6.506;2023-04-25T13:50:14;6.72;;;1.15;;
55082;SDS011;40978;52.850;6.506;2023-04-25T13:52:41;6.25;;;1.77;;
55082;SDS011;40978;52.850;6.506;2023-04-25T13:55:07;5.18;;;0.88;;
55082;SDS011;40978;52.850;6.506;2023-04-25T13:57:34;5.75;;;1.02;;
55082;SDS011;40978;52.850;6.506;2023-04-25T14:00:00;8.13;;;1.08;;
55082;SDS011;40978;52.850;6.506;2023-04-25T14:02:31;6.85;;;1.02;;
55082;SDS011;40978;52.850;6.506;2023-04-25T14:04:56;7.32;;;0.70;;
55082;SDS011;40978;52.850;6.506;2023-04-25T14:07:22;3.40;;;0.68;;
55082;SDS011;40978;52.850;6.506;2023-04-25T14:09:48;7.38;;;0.60;;
55082;SDS011;40978;52.850;6.506;2023-04-25T14:12:13;5.32;;;1.02;;
55082;SDS011;40978;52.850;6.506;2023-04-25T14:14:41;5.28;;;1.00;;
55082;SDS011;40978;52.850;6.506;2023-04-25T14:17:08;5.75;;;1.13;;
55082;SDS011;40978;52.850;6.506;2023-04-25T14:19:34;5.88;;;0.98;;
55082;SDS011;40978;52.850;6.506;2023-04-25T14:22:00;3.42;;;0.90;;
55082;SDS011;40978;52.850;6.506;2023-04-25T14:24:25;5.38;;;0.77;;
55082;SDS011;40978;52.850;6.506;2023-04-25T14:26:51;5.97;;;1.27;;
55082;SDS011;40978;52.850;6.506;2023-04-25T14:29:17;6.03;;;0.93;;
55082;SDS011;40978;52.850;6.506;2023-04-25T14:31:43;9.05;;;1.23;;
55082;SDS011;40978;52.850;6.506;2023-04-25T14:34:08;5.55;;;0.90;;
55082;SDS011;40978;52.850;6.506;2023-04-25T14:36:35;9.18;;;1.52;;
55082;SDS011;40978;52.850;6.506;2023-04-25T14:39:01;5.00;;;0.88;;
55082;SDS011;40978;52.850;6.506;2023-04-25T14:41:27;10.13;;;1.10;;
55082;SDS011;40978;52.850;6.506;2023-04-25T14:43:53;6.57;;;1.50;;
55082;SDS011;40978;52.850;6.506;2023-04-25T14:46:21;7.18;;;1.08;;
55082;SDS011;40978;52.850;6.506;2023-04-25T14:48:48;6.75;;;1.50;;
55082;SDS011;40978;52.850;6.506;2023-04-25T14:51:14;10.88;;;1.67;;
55082;SDS011;40978;52.850;6.506;2023-04-25T14:53:40;7.65;;;1.70;;